sensor_id;sensor_type;location;lat;lon;timestamp;P1;durP1;ratioP1;P2;durP2;ratioP2
67164;SDS011;54093;50.014;19.984;2024-01-11T00:02:49;18.08;;;11.27;;
67164;SDS011;54093;50.014;19.984;2024-01-11T00:12:11;29.13;;;17.35;;
67164;SDS011;54093;50.014;19.984;2024-01-11T00:21:32;21.70;;;13.48;;
67164;SDS011;54093;50.014;19.984;2024-01-11T00:30:53;110.55;;;40.20;;
67164;SDS011;54093;50.014;19.984;2024-01-11T00:40:14;126.53;;;40.15;;
67164;SDS011;54093;50.014;19.984;2024-01-11T00:49:35;110.53;;;41.67;;
67164;SDS011;54093;50.014;19.984;2024-01-11T00:58:56;44.03;;;18.33;;
67164;SDS011;54093;50.014;19.984;2024-01-11T01:08:17;103.90;;;40.22;;
67164;SDS011;54093;50.014;19.984;2024-01-11T01:17:38;27.23;;;13.00;;
67164;SDS011;54093;50.014;19.984;2024-01-11T01:26:59;60.22;;;24.67;;
67164;SDS011;54093;50.014;19.984;2024-01-11T01:36:21;17.13;;;12.27;;
67164;SDS011;54093;50.014;19.984;2024-01-11T01:45:42;40.83;;;20.55;;
67164;SDS011;54093;50.014;19.984;2024-01-11T01:55:03;21.70;;;12.32;;
67164;SDS011;54093;50.014;19.984;2024-01-11T02:04:26;18.02;;;9.75;;
67164;SDS011;54093;50.014;19.984;2024-01-11T02:13:47;42.60;;;20.08;;
67164;SDS011;54093;50.014;19.984;2024-01-11T02:23:28;43.83;;;16.70;;
67164;SDS011;54093;50.014;19.984;2024-01-11T02:32:50;16.80;;;10.45;;
67164;SDS011;54093;50.014;19.984;2024-01-11T02:42:12;72.35;;;24.20;;
67164;SDS011;54093;50.014;19.984;2024-01-11T02:51:33;71.80;;;29.27;;
67164;SDS011;54093;50.014;19.984;2024-01-11T03:00:54;122.45;;;44.13;;
67164;SDS011;54093;50.014;19.984;2024-01-11T03:10:15;69.88;;;31.63;;
67164;SDS011;54093;50.014;19.984;2024-01-11T03:19:40;14.95;;;10.95;;
67164;SDS011;54093;50.014;19.984;2024-01-11T03:29:04;42.10;;;16.98;;
67164;SDS011;54093;50.014;19.984;2024-01-11T03:38:25;21.80;;;15.75;;
67164;SDS011;54093;50.014;19.984;2024-01-11T03:47:46;63.75;;;26.23;;
67164;SDS011;54093;50.014;19.984;2024-01-11T03:57:07;9.20;;;8.40;;
67164;SDS011;54093;50.014;19.984;2024-01-11T04:06:28;25.52;;;15.35;;
67164;SDS011;54093;50.014;19.984;2024-01-11T04:15:49;17.63;;;12.00;;
67164;SDS011;54093;50.014;19.984;2024-01-11T04:25:10;14.93;;;8.45;;
67164;SDS011;54093;50.014;19.984;2024-01-11T04:34:31;53.08;;;20.70;;
67164;SDS011;54093;50.014;19.984;2024-01-11T04:43:52;30.52;;;17.67;;
67164;SDS011;54093;50.014;19.984;2024-01-11T04:53:14;7.95;;;7.15;;
67164;SDS011;54093;50.014;19.984;2024-01-11T05:02:35;39.75;;;22.92;;
67164;SDS011;54093;50.014;19.984;2024-01-11T05:11:55;11.10;;;8.32;;
67164;SDS011;54093;50.014;19.984;2024-01-11T05:21:17;22.33;;;14.65;;
67164;SDS011;54093;50.014;19.984;2024-01-11T05:30:38;23.55;;;11.10;;
67164;SDS011;54093;50.014;19.984;2024-01-11T05:39:59;12.75;;;10.82;;
67164;SDS011;54093;50.014;19.984;2024-01-11T05:49:20;37.50;;;16.75;;
67164;SDS011;54093;50.014;19.984;2024-01-11T05:58:42;23.65;;;15.48;;
67164;SDS011;54093;50.014;19.984;2024-01-11T06:08:03;23.63;;;11.65;;
67164;SDS011;54093;50.014;19.984;2024-01-11T06:17:25;29.60;;;14.20;;
67164;SDS011;54093;50.014;19.984;2024-01-11T06:26:45;29.13;;;10.70;;
67164;SDS011;54093;50.014;19.984;2024-01-11T06:36:07;17.55;;;9.38;;
67164;SDS011;54093;50.014;19.984;2024-01-11T06:45:28;7.95;;;6.75;;
67164;SDS011;54093;50.014;19.984;2024-01-11T06:54:49;11.88;;;7.47;;
67164;SDS011;54093;50.014;19.984;2024-01-11T07:04:10;54.97;;;17.67;;
67164;SDS011;54093;50.014;19.984;2024-01-11T07:13:31;20.83;;;11.32;;
67164;SDS011;54093;50.014;19.984;2024-01-11T07:22:52;15.07;;;9.52;;
67164;SDS011;54093;50.014;19.984;2024-01-11T07:32:13;14.77;;;8.05;;
67164;SDS011;54093;50.014;19.984;2024-01-11T07:41:34;34.53;;;14.45;;
67164;SDS011;54093;50.014;19.984;2024-01-11T07:50:55;8.32;;;7.72;;
67164;SDS011;54093;50.014;19.984;2024-01-11T08:00:16;11.60;;;7.10;;
67164;SDS011;54093;50.014;19.984;2024-01-11T08:09:37;4.57;;;4.32;;
67164;SDS011;54093;50.014;19.984;2024-01-11T08:19:05;11.82;;;10.18;;
67164;SDS011;54093;50.014;19.984;2024-01-11T08:28:27;22.45;;;9.68;;
67164;SDS011;54093;50.014;19.984;2024-01-11T08:37:48;15.85;;;12.75;;
67164;SDS011;54093;50.014;19.984;2024-01-11T08:47:10;5.85;;;5.50;;
67164;SDS011;54093;50.014;19.984;2024-01-11T08:56:31;12.45;;;7.85;;
67164;SDS011;54093;50.014;19.984;2024-01-11T09:05:52;7.13;;;6.25;;
67164;SDS011;54093;50.014;19.984;2024-01-11T09:15:17;12.32;;;6.57;;
67164;SDS011;54093;50.014;19.984;2024-01-11T09:24:38;6.38;;;5.78;;
67164;SDS011;54093;50.014;19.984;2024-01-11T09:34:00;12.60;;;5.82;;
67164;SDS011;54093;50.014;19.984;2024-01-11T09:43:21;23.33;;;10.90;;
67164;SDS011;54093;50.014;19.984;2024-01-11T09:52:45;14.82;;;9.85;;
67164;SDS011;54093;50.014;19.984;2024-01-11T10:02:10;7.28;;;6.38;;
67164;SDS011;54093;50.014;19.984;2024-01-11T10:11:32;23.05;;;8.00;;
67164;SDS011;54093;50.014;19.984;2024-01-11T10:20:55;29.50;;;9.35;;
67164;SDS011;54093;50.014;19.984;2024-01-11T10:30:18;4.32;;;2.47;;
67164;SDS011;54093;50.014;19.984;2024-01-11T10:39:46;13.07;;;6.95;;
67164;SDS011;54093;50.014;19.984;2024-01-11T10:49:11;6.25;;;5.00;;
67164;SDS011;54093;50.014;19.984;2024-01-11T10:58:39;5.03;;;4.43;;
67164;SDS011;54093;50.014;19.984;2024-01-11T11:08:02;7.63;;;3.72;;
67164;SDS011;54093;50.014;19.984;2024-01-11T11:17:26;5.55;;;3.85;;
67164;SDS011;54093;50.014;19.984;2024-01-11T11:26:48;6.63;;;4.82;;
67164;SDS011;54093;50.014;19.984;2024-01-11T11:36:12;1.98;;;1.88;;
67164;SDS011;54093;50.014;19.984;2024-01-11T11:45:34;5.50;;;4.13;;
67164;SDS011;54093;50.014;19.984;2024-01-11T11:54:57;10.43;;;4.18;;
67164;SDS011;54093;50.014;19.984;2024-01-11T12:04:20;2.45;;;2.22;;
67164;SDS011;54093;50.014;19.984;2024-01-11T12:13:42;9.60;;;5.25;;
67164;SDS011;54093;50.014;19.984;2024-01-11T12:23:05;12.55;;;5.38;;
67164;SDS011;54093;50.014;19.984;2024-01-11T12:32:26;7.85;;;5.43;;
67164;SDS011;54093;50.014;19.984;2024-01-11T12:41:50;2.13;;;2.03;;
67164;SDS011;54093;50.014;19.984;2024-01-11T12:51:15;8.52;;;5.70;;
67164;SDS011;54093;50.014;19.984;2024-01-11T13:00:38;5.82;;;2.53;;
67164;SDS011;54093;50.014;19.984;2024-01-11T13:09:59;6.90;;;4.38;;
67164;SDS011;54093;50.014;19.984;2024-01-11T13:19:21;7.63;;;5.63;;
67164;SDS011;54093;50.014;19.984;2024-01-11T13:28:42;11.35;;;7.20;;
67164;SDS011;54093;50.014;19.984;2024-01-11T13:38:03;8.88;;;4.88;;
67164;SDS011;54093;50.014;19.984;2024-01-11T13:47:25;10.95;;;5.97;;
67164;SDS011;54093;50.014;19.984;2024-01-11T13:56:46;8.85;;;4.22;;
67164;SDS011;54093;50.014;19.984;2024-01-11T14:06:07;5.35;;;4.88;;
67164;SDS011;54093;50.014;19.984;2024-01-11T14:15:28;7.43;;;5.88;;
67164;SDS011;54093;50.014;19.984;2024-01-11T14:24:49;13.07;;;6.82;;
67164;SDS011;54093;50.014;19.984;2024-01-11T14:34:10;20.55;;;6.18;;
67164;SDS011;54093;50.014;19.984;2024-01-11T14:43:31;29.65;;;10.50;;
67164;SDS011;54093;50.014;19.984;2024-01-11T14:52:53;26.50;;;10.73;;
67164;SDS011;54093;50.014;19.984;2024-01-11T15:02:14;26.60;;;10.70;;
67164;SDS011;54093;50.014;19.984;2024-01-11T15:11:35;12.20;;;5.90;;
67164;SDS011;54093;50.014;19.984;2024-01-11T15:20:57;25.42;;;12.80;;
67164;SDS011;54093;50.014;19.984;2024-01-11T15:30:18;8.18;;;5.35;;
67164;SDS011;54093;50.014;19.984;2024-01-11T15:39:39;18.05;;;8.25;;
67164;SDS011;54093;50.014;19.984;2024-01-11T15:49:00;15.75;;;8.80;;
67164;SDS011;54093;50.014;19.984;2024-01-11T15:58:22;7.22;;;6.63;;
67164;SDS011;54093;50.014;19.984;2024-01-11T16:07:43;7.18;;;6.40;;
67164;SDS011;54093;50.014;19.984;2024-01-11T16:17:04;11.57;;;6.30;;
67164;SDS011;54093;50.014;19.984;2024-01-11T16:26:25;7.72;;;7.00;;
67164;SDS011;54093;50.014;19.984;2024-01-11T16:35:46;11.75;;;6.10;;
67164;SDS011;54093;50.014;19.984;2024-01-11T16:45:07;12.45;;;6.45;;
67164;SDS011;54093;50.014;19.984;2024-01-11T16:54:28;16.60;;;10.05;;
67164;SDS011;54093;50.014;19.984;2024-01-11T17:03:50;35.95;;;15.02;;
67164;SDS011;54093;50.014;19.984;2024-01-11T17:13:10;35.60;;;16.30;;
67164;SDS011;54093;50.014;19.984;2024-01-11T17:22:32;11.48;;;7.05;;
67164;SDS011;54093;50.014;19.984;2024-01-11T17:31:54;10.43;;;6.47;;
67164;SDS011;54093;50.014;19.984;2024-01-11T17:41:15;7.32;;;5.95;;
67164;SDS011;54093;50.014;19.984;2024-01-11T17:50:37;18.13;;;10.45;;
67164;SDS011;54093;50.014;19.984;2024-01-11T17:59:59;9.20;;;6.15;;
67164;SDS011;54093;50.014;19.984;2024-01-11T18:09:20;18.90;;;11.68;;
67164;SDS011;54093;50.014;19.984;2024-01-11T18:18:42;16.75;;;7.45;;
67164;SDS011;54093;50.014;19.984;2024-01-11T18:28:04;9.23;;;7.65;;
67164;SDS011;54093;50.014;19.984;2024-01-11T18:37:25;13.55;;;7.53;;
67164;SDS011;54093;50.014;19.984;2024-01-11T18:46:47;31.08;;;14.50;;
67164;SDS011;54093;50.014;19.984;2024-01-11T18:56:14;9.63;;;6.95;;
67164;SDS011;54093;50.014;19.984;2024-01-11T19:05:36;34.35;;;16.05;;
67164;SDS011;54093;50.014;19.984;2024-01-11T19:15:00;5.72;;;5.28;;
67164;SDS011;54093;50.014;19.984;2024-01-11T19:24:21;21.77;;;13.05;;
67164;SDS011;54093;50.014;19.984;2024-01-11T19:33:42;7.63;;;6.80;;
67164;SDS011;54093;50.014;19.984;2024-01-11T19:43:03;4.43;;;4.18;;
67164;SDS011;54093;50.014;19.984;2024-01-11T19:52:24;7.03;;;5.97;;
67164;SDS011;54093;50.014;19.984;2024-01-11T20:01:45;19.30;;;11.23;;
67164;SDS011;54093;50.014;19.984;2024-01-11T20:11:06;7.55;;;6.78;;
67164;SDS011;54093;50.014;19.984;2024-01-11T20:20:27;20.65;;;12.07;;
67164;SDS011;54093;50.014;19.984;2024-01-11T20:29:49;39.42;;;18.20;;
67164;SDS011;54093;50.014;19.984;2024-01-11T20:39:10;46.50;;;17.80;;
67164;SDS011;54093;50.014;19.984;2024-01-11T20:48:32;6.15;;;5.70;;
67164;SDS011;54093;50.014;19.984;2024-01-11T20:57:53;8.13;;;5.22;;
67164;SDS011;54093;50.014;19.984;2024-01-11T21:07:14;7.80;;;3.90;;
67164;SDS011;54093;50.014;19.984;2024-01-11T21:16:35;13.25;;;7.90;;
67164;SDS011;54093;50.014;19.984;2024-01-11T21:25:56;30.55;;;12.63;;
67164;SDS011;54093;50.014;19.984;2024-01-11T21:35:17;12.90;;;8.00;;
67164;SDS011;54093;50.014;19.984;2024-01-11T21:44:39;8.82;;;5.95;;
67164;SDS011;54093;50.014;19.984;2024-01-11T21:54:01;5.70;;;4.57;;
67164;SDS011;54093;50.014;19.984;2024-01-11T22:03:24;8.13;;;6.70;;
67164;SDS011;54093;50.014;19.984;2024-01-11T22:12:47;11.55;;;7.00;;
67164;SDS011;54093;50.014;19.984;2024-01-11T22:22:08;9.00;;;8.10;;
67164;SDS011;54093;50.014;19.984;2024-01-11T22:31:32;18.10;;;7.00;;
67164;SDS011;54093;50.014;19.984;2024-01-11T22:40:55;12.18;;;6.65;;
67164;SDS011;54093;50.014;19.984;2024-01-11T22:50:16;9.50;;;6.57;;
67164;SDS011;54093;50.014;19.984;2024-01-11T22:59:37;13.77;;;8.43;;
67164;SDS011;54093;50.014;19.984;2024-01-11T23:08:59;25.00;;;12.27;;
67164;SDS011;54093;50.014;19.984;2024-01-11T23:18:23;10.30;;;7.63;;
67164;SDS011;54093;50.014;19.984;2024-01-11T23:27:45;9.02;;;7.20;;
67164;SDS011;54093;50.014;19.984;2024-01-11T23:37:06;6.95;;;6.45;;
67164;SDS011;54093;50.014;19.984;2024-01-11T23:46:27;21.98;;;6.90;;
67164;SDS011;54093;50.014;19.984;2024-01-11T23:55:47;9.43;;;7.07;;
